Time;durP1;ratioP1;P1;durP2;ratioP2;P2;SDS_P1;SDS_P2;PMS_P1;PMS_P2;Temp;Humidity;BMP_temperature;BMP_pressure;BME280_temperature;BME280_humidity;BME280_pressure;Samples;Min_cycle;Max_cycle;Signal;HPM_P1;HPM_P2
2023/04/02 00:02:19;;;;;;;14.93;8.80;;;;;;;6.05;100.00;100914.09;5013614;28;20113;-86
2023/04/02 00:05:19;;;;;;;12.98;8.27;;;;;;;6.02;100.00;100920.66;4996673;28;20046;-86
2023/04/02 00:07:50;;;;;;;13.98;8.50;;;;;;;6.01;100.00;100919.00;4999588;28;20034;-87
2023/04/02 00:10:33;;;;;;;14.15;8.55;;;;;;;5.99;100.00;100915.66;5016409;28;20141;-87
2023/04/02 00:13:16;;;;;;;11.52;7.80;;;;;;;5.99;100.00;100925.59;5000084;28;20092;-86
2023/04/02 00:15:48;;;;;;;13.30;8.07;;;;;;;5.94;100.00;100926.13;5017664;28;20034;-87
2023/04/02 00:18:21;;;;;;;11.70;7.93;;;;;;;5.95;100.00;100930.50;5017563;28;20105;-86
2023/04/02 00:21:17;;;;;;;12.60;8.20;;;;;;;5.96;100.00;100933.00;4999858;28;20116;-86
2023/04/02 00:23:43;;;;;;;13.57;8.30;;;;;;;5.96;100.00;100935.69;4990554;28;20125;-86
2023/04/02 00:26:38;;;;;;;14.68;8.65;;;;;;;6.00;100.00;100944.25;4999433;28;20088;-86
2023/04/02 00:29:05;;;;;;;16.13;9.63;;;;;;;5.94;100.00;100945.78;4999819;28;20101;-87
2023/04/02 00:31:32;;;;;;;13.52;9.20;;;;;;;5.88;100.00;100943.84;4983005;28;20429;-86
2023/04/02 00:34:00;;;;;;;17.15;10.02;;;;;;;5.89;100.00;100955.44;5000115;28;20030;-87
2023/04/02 00:36:32;;;;;;;15.05;9.77;;;;;;;5.84;100.00;100955.16;5016675;28;20160;-87
2023/04/02 00:39:00;;;;;;;14.60;9.38;;;;;;;5.85;100.00;100967.63;5000168;28;20034;-86
2023/04/02 00:41:29;;;;;;;15.95;9.52;;;;;;;5.77;100.00;100963.97;4983197;28;20403;-87
2023/04/02 00:43:56;;;;;;;16.05;10.15;;;;;;;5.80;100.00;100962.75;5016453;28;20021;-86
2023/04/02 00:46:30;;;;;;;16.83;9.95;;;;;;;5.78;100.00;100973.69;5016978;28;20295;-86
2023/04/02 00:49:08;;;;;;;16.15;10.07;;;;;;;5.80;100.00;100978.91;5016433;28;20115;-86
2023/04/02 00:51:50;;;;;;;16.38;9.80;;;;;;;5.84;100.00;100982.09;4999852;28;20030;-86
2023/04/02 00:54:22;;;;;;;14.02;9.30;;;;;;;5.77;100.00;100988.19;5016715;28;20629;-87
2023/04/02 00:56:52;;;;;;;13.43;9.20;;;;;;;5.71;100.00;100985.38;4999211;28;20077;-86
2023/04/02 00:59:25;;;;;;;14.18;8.77;;;;;;;5.72;100.00;100987.88;5017196;28;20527;-87
2023/04/02 01:02:17;;;;;;;14.85;9.45;;;;;;;5.71;100.00;101005.06;4999208;28;20188;-87
2023/04/02 01:04:53;;;;;;;13.38;9.40;;;;;;;5.66;100.00;101007.47;5013281;28;20046;-86
2023/04/02 01:07:37;;;;;;;13.80;9.15;;;;;;;5.68;100.00;101016.19;4998605;28;20026;-87
2023/04/02 01:10:16;;;;;;;15.38;10.23;;;;;;;5.68;100.00;101016.19;5015402;28;20037;-87
2023/04/02 01:12:54;;;;;;;14.70;9.80;;;;;;;5.69;100.00;101017.88;5016028;28;20501;-86
2023/04/02 01:15:58;;;;;;;16.15;10.07;;;;;;;5.70;100.00;101021.38;4998439;28;20034;-87
2023/04/02 01:18:49;;;;;;;14.65;9.38;;;;;;;5.70;100.00;101018.69;4989824;28;20034;-86
2023/04/02 01:21:36;;;;;;;15.30;9.73;;;;;;;5.67;100.00;101027.13;5016411;28;20033;-87
2023/04/02 01:24:09;;;;;;;17.85;10.45;;;;;;;5.71;100.00;101025.75;4998219;28;20572;-87
2023/04/02 01:26:43;;;;;;;15.98;10.82;;;;;;;5.68;100.00;101035.03;4998316;28;20128;-87
2023/04/02 01:29:22;;;;;;;15.73;10.55;;;;;;;5.68;100.00;101042.28;4998724;28;20096;-87
2023/04/02 01:31:54;;;;;;;16.33;10.50;;;;;;;5.66;100.00;101039.75;4998020;28;20034;-86
2023/04/02 01:34:25;;;;;;;14.68;9.60;;;;;;;5.70;100.00;101040.22;4999084;28;20066;-87
2023/04/02 01:37:28;;;;;;;15.52;10.02;;;;;;;5.74;100.00;101052.31;5015003;28;20029;-87
2023/04/02 01:39:53;;;;;;;17.42;10.30;;;;;;;5.72;100.00;101049.81;4968485;28;20041;-87
2023/04/02 01:42:25;;;;;;;15.63;10.03;;;;;;;5.71;100.00;101069.66;5016000;28;20482;-87
2023/04/02 01:45:01;;;;;;;16.50;11.05;;;;;;;5.67;100.00;101065.69;4998381;28;20058;-87
2023/04/02 01:47:28;;;;;;;15.80;10.45;;;;;;;5.65;100.00;101072.25;5015550;28;20038;-87
2023/04/02 01:50:32;;;;;;;16.42;10.68;;;;;;;5.61;100.00;101078.00;5015624;28;20088;-87
2023/04/02 01:53:06;;;;;;;17.80;11.10;;;;;;;5.57;100.00;101082.03;5015264;28;20088;-87
2023/04/02 01:55:41;;;;;;;17.58;10.93;;;;;;;5.57;100.00;101095.50;4997631;28;20037;-87
2023/04/02 01:58:12;;;;;;;19.33;10.10;;;;;;;5.48;100.00;101090.31;4997776;28;20116;-87
2023/04/02 02:01:13;;;;;;;15.38;10.13;;;;;;;5.49;100.00;101100.91;4998202;28;20080;-87
2023/04/02 02:03:42;;;;;;;15.98;9.45;;;;;;;5.40;100.00;101096.59;4997193;28;20030;-87
2023/04/02 02:06:12;;;;;;;16.70;9.63;;;;;;;5.39;100.00;101097.63;4998573;28;20037;-87
2023/04/02 02:09:05;;;;;;;13.50;8.55;;;;;;;5.37;100.00;101110.41;4997572;28;20026;-87
2023/04/02 02:11:35;;;;;;;10.73;8.35;;;;;;;5.32;100.00;101108.22;4994662;28;20045;-86
2023/04/02 02:14:17;;;;;;;14.35;8.63;;;;;;;5.33;100.00;101123.38;4997485;28;20041;-87
2023/04/02 02:16:53;;;;;;;13.70;8.18;;;;;;;5.28;100.00;101120.34;5015737;28;20037;-87
2023/04/02 02:19:41;;;;;;;10.93;7.32;;;;;;;5.27;100.00;101134.84;4997217;28;20034;-87
2023/04/02 02:22:34;;;;;;;10.93;7.50;;;;;;;5.25;100.00;101134.97;5007065;28;20049;-87
2023/04/02 02:25:04;;;;;;;9.93;6.75;;;;;;;5.21;100.00;101146.25;4997134;28;20026;-86
2023/04/02 02:27:48;;;;;;;10.45;6.60;;;;;;;5.18;100.00;101152.84;5014776;28;20033;-87
2023/04/02 02:30:24;;;;;;;10.18;6.25;;;;;;;5.17;100.00;101155.72;4997760;28;20107;-86
2023/04/02 02:32:58;;;;;;;9.73;6.18;;;;;;;5.17;100.00;101164.63;5013266;28;20120;-86
2023/04/02 02:35:37;;;;;;;10.02;5.75;;;;;;;5.15;100.00;101157.72;4996818;28;20049;-87
2023/04/02 02:38:40;;;;;;;10.93;5.95;;;;;;;5.10;100.00;101160.94;5014456;28;20037;-87
2023/04/02 02:41:14;;;;;;;7.60;5.40;;;;;;;5.06;100.00;101165.81;5015378;28;20040;-86
2023/04/02 02:43:45;;;;;;;8.18;5.32;;;;;;;5.08;100.00;101176.41;4997169;28;20040;-87
2023/04/02 02:46:19;;;;;;;8.30;5.20;;;;;;;5.07;100.00;101169.34;5014799;28;20070;-87
2023/04/02 02:48:45;;;;;;;7.07;5.22;;;;;;;5.05;100.00;101185.66;5014194;28;20034;-87
2023/04/02 02:51:21;;;;;;;6.82;5.03;;;;;;;5.00;100.00;101182.63;5014178;28;20471;-87
2023/04/02 02:53:55;;;;;;;7.38;5.07;;;;;;;5.00;100.00;101193.38;5014989;28;20076;-87
2023/04/02 02:56:22;;;;;;;8.05;4.70;;;;;;;4.98;100.00;101190.03;4996579;28;20037;-86
2023/04/02 02:58:51;;;;;;;6.47;5.05;;;;;;;4.99;100.00;101196.25;5014949;28;20060;-87
2023/04/02 03:01:17;;;;;;;6.47;4.90;;;;;;;5.01;100.00;101202.31;5014294;28;20101;-87
2023/04/02 03:03:44;;;;;;;8.32;5.90;;;;;;;5.01;100.00;101205.81;4980431;28;20472;-86
2023/04/02 03:06:15;;;;;;;7.88;4.97;;;;;;;5.00;100.00;101201.44;5014263;28;20038;-87
2023/04/02 03:08:43;;;;;;;9.00;5.47;;;;;;;5.03;100.00;101213.72;5014753;28;20079;-86
2023/04/02 03:11:32;;;;;;;7.32;5.68;;;;;;;5.02;100.00;101220.09;4996796;28;20026;-87
2023/04/02 03:14:09;;;;;;;10.20;6.65;;;;;;;5.04;100.00;101212.72;5014233;28;20036;-86
2023/04/02 03:16:44;;;;;;;11.32;7.60;;;;;;;5.04;100.00;101229.69;4996381;28;20489;-86
2023/04/02 03:19:34;;;;;;;11.68;7.30;;;;;;;5.08;100.00;101240.97;5013874;28;20033;-86
2023/04/02 03:22:30;;;;;;;10.65;7.75;;;;;;;5.07;100.00;101237.41;4996139;28;20022;-87
2023/04/02 03:25:11;;;;;;;16.65;9.10;;;;;;;5.04;100.00;101251.22;5008839;28;20038;-87
2023/04/02 03:27:42;;;;;;;13.63;8.57;;;;;;;4.96;100.00;101251.22;4996487;28;20124;-87
2023/04/02 03:30:37;;;;;;;12.15;7.82;;;;;;;5.00;100.00;101270.53;5013603;28;20026;-86
2023/04/02 03:33:10;;;;;;;11.32;8.20;;;;;;;4.94;100.00;101274.75;4997058;28;20030;-87
2023/04/02 03:35:48;;;;;;;12.25;8.73;;;;;;;4.89;100.00;101277.94;4997040;28;20025;-86
2023/04/02 03:38:31;;;;;;;10.80;8.18;;;;;;;4.88;100.00;101280.78;4995744;28;20192;-86
2023/04/02 03:41:10;;;;;;;11.52;8.30;;;;;;;4.90;100.00;101293.06;5018053;28;20072;-87
2023/04/02 03:43:42;;;;;;;12.35;8.98;;;;;;;4.84;100.00;101295.56;5001080;28;20076;-87
2023/04/02 03:46:32;;;;;;;13.35;8.20;;;;;;;4.84;100.00;101300.94;4991319;28;20116;-87
2023/04/02 03:49:04;;;;;;;10.70;7.60;;;;;;;4.78;100.00;101302.44;4980996;28;20379;-87
2023/04/02 03:51:35;;;;;;;11.77;6.85;;;;;;;4.78;100.00;101304.31;4980987;28;20356;-87
2023/04/02 03:54:01;;;;;;;10.43;7.60;;;;;;;4.72;100.00;101314.72;4980569;28;20030;-87
2023/04/02 03:56:38;;;;;;;12.88;8.05;;;;;;;4.72;100.00;101314.72;4980587;28;20132;-87
2023/04/02 03:59:33;;;;;;;13.20;7.70;;;;;;;4.74;100.00;101322.63;4980487;28;20121;-87
2023/04/02 04:02:05;;;;;;;10.20;7.07;;;;;;;4.70;100.00;101332.03;4980633;28;20117;-87
2023/04/02 04:04:31;;;;;;;10.60;5.93;;;;;;;4.69;100.00;101333.84;4981237;28;20030;-87
2023/04/02 04:07:01;;;;;;;10.65;7.22;;;;;;;4.69;100.00;101341.91;4979945;28;20026;-87
2023/04/02 04:09:31;;;;;;;10.02;7.18;;;;;;;4.66;100.00;101344.09;4964464;28;20042;-87
2023/04/02 04:12:27;;;;;;;10.18;7.13;;;;;;;4.65;100.00;101343.28;4980309;28;20031;-87
2023/04/02 04:15:20;;;;;;;11.65;7.20;;;;;;;4.61;100.00;101352.66;4974716;28;20065;-86
2023/04/02 04:18:09;;;;;;;10.07;7.05;;;;;;;4.62;100.00;101366.94;4981080;28;20026;-87
2023/04/02 04:20:46;;;;;;;13.00;7.47;;;;;;;4.63;100.00;101374.00;4980024;28;20045;-86
2023/04/02 04:23:24;;;;;;;12.23;7.57;;;;;;;4.59;100.00;101376.16;4980156;28;20121;-87
2023/04/02 04:25:57;;;;;;;12.25;7.70;;;;;;;4.57;100.00;101375.50;4980225;28;20054;-87
2023/04/02 04:28:37;;;;;;;13.75;8.07;;;;;;;4.57;100.00;101387.06;4979745;28;20439;-88
2023/04/02 04:31:16;;;;;;;12.93;8.20;;;;;;;4.55;100.00;101390.94;4980055;28;20208;-86
2023/04/02 04:33:46;;;;;;;13.43;8.30;;;;;;;4.56;100.00;101395.28;4979880;28;20116;-87
2023/04/02 04:36:53;;;;;;;16.80;7.72;;;;;;;4.60;100.00;101401.22;4979915;28;20421;-87
2023/04/02 04:39:45;;;;;;;14.10;8.63;;;;;;;4.60;100.00;101417.34;4980715;28;20045;-87
2023/04/02 04:42:26;;;;;;;12.88;8.13;;;;;;;4.55;100.00;101418.66;4997065;28;20026;-87
2023/04/02 04:45:19;;;;;;;13.68;6.82;;;;;;;4.57;100.00;101435.44;4997330;28;20034;-87
2023/04/02 04:48:38;;;;;;;11.23;7.50;;;;;;;4.51;100.00;101444.16;4979874;28;20061;-87
2023/04/02 04:51:48;;;;;;;11.77;7.13;;;;;;;4.47;100.00;101456.22;4955158;28;20077;-86
2023/04/02 04:54:17;;;;;;;9.50;6.15;;;;;;;4.38;100.00;101451.81;4953508;28;20050;-87
2023/04/02 04:56:54;;;;;;;9.43;5.70;;;;;;;4.34;100.00;101448.63;4996680;28;20088;-87
2023/04/02 04:59:32;;;;;;;7.07;5.32;;;;;;;4.37;100.00;101455.50;4979600;28;20096;-87
2023/04/02 05:02:16;;;;;;;10.43;5.90;;;;;;;4.37;100.00;101460.88;4996698;28;20030;-87
2023/04/02 05:04:47;;;;;;;9.50;5.53;;;;;;;4.31;100.00;101458.84;4996917;28;20093;-87
2023/04/02 05:07:17;;;;;;;10.05;5.53;;;;;;;4.28;100.00;101462.69;4979267;28;20062;-86
2023/04/02 05:09:54;;;;;;;9.93;6.40;;;;;;;4.30;100.00;101481.34;4980108;28;20387;-86
2023/04/02 05:12:31;;;;;;;10.50;5.65;;;;;;;4.23;100.00;101483.81;4996408;28;20045;-87
2023/04/02 05:15:04;;;;;;;8.48;5.72;;;;;;;4.21;100.00;101488.50;4997241;28;20030;-87
2023/04/02 05:18:11;;;;;;;9.60;5.75;;;;;;;4.22;100.00;101496.41;4996686;28;20520;-86
2023/04/02 05:21:05;;;;;;;10.98;6.32;;;;;;;4.21;100.00;101497.41;4979346;28;20046;-87
2023/04/02 05:23:44;;;;;;;11.63;6.30;;;;;;;4.12;100.00;101506.41;4979259;28;20455;-86
2023/04/02 05:26:43;;;;;;;11.25;6.05;;;;;;;4.11;100.00;101503.88;4979835;28;20462;-86
2023/04/02 05:29:19;;;;;;;9.77;5.78;;;;;;;4.12;100.00;101506.41;4978621;28;20411;-87
2023/04/02 05:31:53;;;;;;;8.65;5.10;;;;;;;4.09;100.00;101517.47;4996690;28;20093;-85
2023/04/02 05:34:31;;;;;;;8.98;4.90;;;;;;;4.09;100.00;101519.28;4978940;28;20554;-85
2023/04/02 05:37:00;;;;;;;8.38;4.78;;;;;;;4.06;100.00;101525.84;4979355;28;20478;-85
2023/04/02 05:39:26;;;;;;;7.75;5.10;;;;;;;4.10;100.00;101531.72;4979173;28;20092;-85
2023/04/02 05:42:04;;;;;;;10.85;5.32;;;;;;;4.09;100.00;101527.34;4979362;28;20030;-85
2023/04/02 05:44:33;;;;;;;9.80;5.05;;;;;;;4.09;100.00;101538.94;4996134;28;20026;-85
2023/04/02 05:47:16;;;;;;;9.52;5.60;;;;;;;4.12;100.00;101533.25;4989744;28;20054;-86
2023/04/02 05:50:11;;;;;;;10.15;5.60;;;;;;;4.12;100.00;101541.31;5016056;28;20026;-85
2023/04/02 05:52:44;;;;;;;9.00;5.43;;;;;;;4.17;100.00;101546.22;4997522;28;20037;-86
2023/04/02 05:55:10;;;;;;;10.45;6.10;;;;;;;4.18;100.00;101555.97;4998330;28;20032;-85
2023/04/02 05:57:46;;;;;;;8.77;6.13;;;;;;;4.19;100.00;101561.19;4997497;28;20124;-85
2023/04/02 06:00:21;;;;;;;8.57;6.05;;;;;;;4.22;100.00;101571.63;5015272;28;20026;-86
2023/04/02 06:02:55;;;;;;;9.20;6.63;;;;;;;4.20;100.00;101570.91;4996267;28;20437;-86
2023/04/02 06:05:25;;;;;;;9.23;6.05;;;;;;;4.27;100.00;101581.06;4997300;28;20148;-86
2023/04/02 06:08:00;;;;;;;10.50;6.47;;;;;;;4.25;100.00;101581.19;4997551;28;20112;-85
2023/04/02 06:10:35;;;;;;;10.27;6.93;;;;;;;4.24;100.00;101584.03;5015180;28;20030;-86
2023/04/02 06:13:07;;;;;;;10.63;6.72;;;;;;;4.28;100.00;101588.09;4997742;28;20040;-86
2023/04/02 06:15:35;;;;;;;11.18;6.75;;;;;;;4.27;100.00;101591.81;5014808;28;20049;-86
2023/04/02 06:18:03;;;;;;;10.32;6.95;;;;;;;4.27;100.00;101606.06;4997060;28;20030;-85
2023/04/02 06:20:32;;;;;;;12.85;7.70;;;;;;;4.26;100.00;101619.66;4997918;28;20466;-85
2023/04/02 06:23:03;;;;;;;12.10;7.70;;;;;;;4.26;100.00;101620.50;5014651;28;20037;-85
2023/04/02 06:26:07;;;;;;;10.88;7.03;;;;;;;4.29;100.00;101622.88;4996896;28;20030;-85
2023/04/02 06:28:56;;;;;;;12.05;7.40;;;;;;;4.26;100.00;101636.63;4996921;28;20034;-85
2023/04/02 06:31:35;;;;;;;13.77;7.32;;;;;;;4.23;100.00;101631.56;4997748;28;20139;-85
2023/04/02 06:34:02;;;;;;;10.65;6.50;;;;;;;4.21;100.00;101642.44;4997394;28;20033;-85
2023/04/02 06:36:32;;;;;;;10.67;6.80;;;;;;;4.22;100.00;101648.66;4996815;28;20132;-85
2023/04/02 06:39:05;;;;;;;11.80;6.93;;;;;;;4.22;100.00;101649.53;4997889;28;20119;-85
2023/04/02 06:41:31;;;;;;;15.57;6.70;;;;;;;4.19;100.00;101659.72;4997075;28;20034;-85
2023/04/02 06:44:08;;;;;;;11.23;6.50;;;;;;;4.19;100.00;101657.03;5013621;28;20040;-87
2023/04/02 06:46:44;;;;;;;12.40;5.88;;;;;;;4.24;100.00;101659.25;4995543;28;20482;-86
2023/04/02 06:49:33;;;;;;;9.40;5.72;;;;;;;4.26;100.00;101676.91;4996467;28;20030;-86
2023/04/02 06:52:00;;;;;;;9.50;5.75;;;;;;;4.27;100.00;101677.78;4997098;28;20100;-86
2023/04/02 06:54:26;;;;;;;9.68;5.40;;;;;;;4.27;100.00;101675.91;5014131;28;20058;-86
2023/04/02 06:56:55;;;;;;;11.13;5.30;;;;;;;4.26;100.00;101681.44;5014411;28;20033;-85
2023/04/02 06:59:23;;;;;;;9.98;4.70;;;;;;;4.32;100.00;101699.63;4996716;28;20049;-85
2023/04/02 07:01:56;;;;;;;10.75;5.13;;;;;;;4.39;100.00;101704.25;5014334;28;20091;-85
2023/04/02 07:04:22;;;;;;;7.72;4.88;;;;;;;4.56;100.00;101713.31;4996306;28;20053;-85
2023/04/02 07:06:50;;;;;;;8.13;5.00;;;;;;;4.77;100.00;101722.03;4996160;28;20041;-86
2023/04/02 07:09:15;;;;;;;6.80;3.63;;;;;;;4.87;100.00;101720.09;4996470;28;20064;-86
2023/04/02 07:11:44;;;;;;;8.57;4.32;;;;;;;4.93;100.00;101732.91;4997285;28;20025;-85
2023/04/02 07:14:13;;;;;;;9.25;4.88;;;;;;;5.05;100.00;101742.44;5014169;28;20058;-85
2023/04/02 07:16:41;;;;;;;8.03;4.20;;;;;;;5.12;100.00;101745.31;4980561;28;20026;-85
2023/04/02 07:19:16;;;;;;;7.75;3.88;;;;;;;5.18;100.00;101741.16;4996128;28;20128;-86
2023/04/02 07:21:41;;;;;;;7.57;3.72;;;;;;;5.19;100.00;101753.63;5014104;28;20037;-86
2023/04/02 07:24:06;;;;;;;9.03;3.80;;;;;;;5.18;100.00;101762.69;5014047;28;20034;-86
2023/04/02 07:26:32;;;;;;;5.93;3.50;;;;;;;5.25;100.00;101767.28;4979898;28;20057;-86
2023/04/02 07:29:00;;;;;;;7.45;3.13;;;;;;;5.29;100.00;101772.38;4995968;28;20389;-86
2023/04/02 07:31:27;;;;;;;6.20;3.37;;;;;;;5.33;100.00;101776.41;5014169;28;20477;-86
2023/04/02 07:33:56;;;;;;;7.40;3.03;;;;;;;5.19;100.00;101772.44;4995874;28;20167;-86
2023/04/02 07:36:26;;;;;;;5.25;2.60;;;;;;;4.96;100.00;101778.34;5013651;28;20057;-86
2023/04/02 07:38:52;;;;;;;4.78;2.58;;;;;;;4.84;100.00;101782.25;4996240;28;20056;-86
2023/04/02 07:41:18;;;;;;;5.70;2.50;;;;;;;4.80;100.00;101797.00;5013772;28;20454;-86
2023/04/02 07:43:44;;;;;;;6.47;2.72;;;;;;;4.78;100.00;101799.00;4988133;28;20288;-86
2023/04/02 07:46:13;;;;;;;4.35;2.35;;;;;;;4.74;100.00;101793.94;5013498;28;20085;-85
2023/04/02 07:48:43;;;;;;;5.90;2.38;;;;;;;4.79;100.00;101798.84;5013576;28;20037;-86
2023/04/02 07:51:19;;;;;;;7.05;2.50;;;;;;;4.86;100.00;101797.25;4996003;28;20033;-85
2023/04/02 07:53:49;;;;;;;5.00;2.43;;;;;;;4.98;100.00;101800.53;4996284;28;20041;-88
2023/04/02 07:56:19;;;;;;;6.25;2.28;;;;;;;5.10;100.00;101803.81;5013809;28;20114;-85
2023/04/02 07:58:45;;;;;;;6.13;2.42;;;;;;;5.23;100.00;101815.03;5013373;28;20398;-85
2023/04/02 08:01:25;;;;;;;4.93;2.43;;;;;;;5.35;100.00;101820.16;4976475;28;20487;-86
2023/04/02 08:03:57;;;;;;;6.15;2.38;;;;;;;5.52;100.00;101829.19;5006841;28;20092;-85
2023/04/02 08:06:23;;;;;;;5.22;1.98;;;;;;;5.62;100.00;101827.22;4979805;28;20030;-85
2023/04/02 08:08:49;;;;;;;5.03;2.10;;;;;;;5.68;100.00;101831.97;5013488;28;20030;-85
2023/04/02 08:11:16;;;;;;;7.35;2.00;;;;;;;5.76;100.00;101834.72;5014113;28;20351;-86
2023/04/02 08:13:41;;;;;;;4.57;2.03;;;;;;;5.78;98.26;101838.09;4995681;28;20026;-85
2023/04/02 08:16:08;;;;;;;7.68;2.08;;;;;;;5.72;97.72;101852.22;5013326;28;20030;-85
2023/04/02 08:18:39;;;;;;;7.57;2.30;;;;;;;5.69;97.43;101844.44;5014005;28;20038;-85
2023/04/02 08:21:09;;;;;;;4.97;1.92;;;;;;;5.73;97.04;101839.59;4980727;28;20030;-85
2023/04/02 08:23:36;;;;;;;4.10;1.90;;;;;;;5.88;96.82;101850.63;4996408;28;20351;-85
2023/04/02 08:26:02;;;;;;;5.00;1.88;;;;;;;5.96;95.47;101854.22;4996446;28;20133;-86
2023/04/02 08:28:28;;;;;;;5.97;1.63;;;;;;;6.01;94.96;101860.97;4999065;28;20088;-86
2023/04/02 08:30:53;;;;;;;4.23;1.80;;;;;;;6.08;93.86;101864.72;4999664;28;20030;-86
2023/04/02 08:33:19;;;;;;;3.10;1.70;;;;;;;6.18;93.46;101872.69;4982966;28;20038;-86
2023/04/02 08:35:49;;;;;;;4.18;1.92;;;;;;;6.31;92.91;101883.88;4999370;28;20407;-86
2023/04/02 08:38:16;;;;;;;5.03;1.55;;;;;;;6.30;92.40;101880.34;4999379;28;20030;-86
2023/04/02 08:40:45;;;;;;;6.57;1.95;;;;;;;6.28;92.90;101893.13;4999248;28;20079;-86
2023/04/02 08:43:55;;;;;;;4.83;1.67;;;;;;;6.45;96.95;101902.13;4999217;28;20029;-86
2023/04/02 08:46:27;;;;;;;4.82;1.80;;;;;;;6.64;95.49;101902.88;4998730;28;20133;-86
2023/04/02 08:49:10;;;;;;;3.03;1.80;;;;;;;6.80;93.77;101908.31;4999041;28;20084;-86
2023/04/02 08:51:36;;;;;;;4.22;1.60;;;;;;;6.82;91.74;101903.59;5016354;28;20044;-87
2023/04/02 08:54:20;;;;;;;5.38;1.73;;;;;;;6.84;90.43;101908.84;4998805;28;20034;-86
2023/04/02 08:57:00;;;;;;;5.10;1.80;;;;;;;6.88;91.13;101917.44;5016644;28;20104;-86
2023/04/02 08:59:38;;;;;;;2.53;1.17;;;;;;;6.91;91.48;101930.59;4999262;28;20030;-86
2023/04/02 09:02:15;;;;;;;5.70;1.75;;;;;;;7.00;91.05;101932.31;5016143;28;20030;-86
2023/04/02 09:04:44;;;;;;;6.55;1.48;;;;;;;6.97;89.15;101936.19;4998685;28;20034;-86
2023/04/02 09:07:15;;;;;;;5.25;1.48;;;;;;;6.85;88.09;101943.75;4999063;28;20084;-86
2023/04/02 09:09:48;;;;;;;4.27;1.60;;;;;;;6.90;89.66;101950.50;4999601;28;20030;-86
2023/04/02 09:12:20;;;;;;;3.88;1.60;;;;;;;6.94;89.54;101952.72;4984105;28;20042;-86
2023/04/02 09:15:10;;;;;;;2.60;1.30;;;;;;;6.95;90.39;101953.53;4998493;28;20042;-86
2023/04/02 09:17:36;;;;;;;3.10;1.40;;;;;;;6.82;88.34;101959.38;4998830;28;20083;-86
2023/04/02 09:20:22;;;;;;;2.60;1.30;;;;;;;6.80;91.02;101962.25;4967269;28;20124;-86
2023/04/02 09:22:50;;;;;;;3.88;1.45;;;;;;;6.88;89.27;101969.56;4998938;28;20034;-86
2023/04/02 09:25:30;;;;;;;3.00;1.40;;;;;;;7.07;88.89;101973.84;5015743;28;20053;-86
2023/04/02 09:28:00;;;;;;;4.18;1.60;;;;;;;7.12;87.68;101982.25;4998073;28;20030;-86
2023/04/02 09:30:28;;;;;;;2.88;1.20;;;;;;;7.20;88.12;101989.53;4982451;28;20553;-86
2023/04/02 09:32:57;;;;;;;4.97;1.40;;;;;;;7.14;87.02;101993.72;4998227;28;20049;-86
2023/04/02 09:35:28;;;;;;;3.38;1.30;;;;;;;7.19;87.02;101991.41;5015846;28;20026;-86
2023/04/02 09:38:08;;;;;;;4.13;1.45;;;;;;;7.22;87.01;102001.03;4998315;28;20474;-86
2023/04/02 09:40:52;;;;;;;3.85;1.23;;;;;;;7.22;86.76;102005.56;4998707;28;20120;-86
2023/04/02 09:43:37;;;;;;;4.25;1.63;;;;;;;7.34;88.77;101996.16;4998095;28;20036;-86
2023/04/02 09:46:12;;;;;;;4.33;1.23;;;;;;;7.43;86.30;102007.81;4981925;28;20402;-86
2023/04/02 09:48:43;;;;;;;3.80;1.50;;;;;;;7.45;82.77;101994.97;4997774;28;20033;-86
2023/04/02 09:51:08;;;;;;;3.80;1.42;;;;;;;7.49;83.71;102009.84;5016110;28;20026;-86
2023/04/02 09:53:41;;;;;;;3.73;1.53;;;;;;;7.50;83.77;102016.91;5016158;28;20022;-86
2023/04/02 09:56:11;;;;;;;4.88;1.45;;;;;;;7.46;82.37;102027.22;5016305;28;20033;-86
2023/04/02 09:58:41;;;;;;;3.60;1.35;;;;;;;7.50;82.69;102028.59;5015149;28;20026;-86
2023/04/02 10:01:28;;;;;;;3.47;1.50;;;;;;;7.49;84.76;102029.59;5014012;28;20040;-86
2023/04/02 10:03:54;;;;;;;4.70;1.30;;;;;;;7.57;83.98;102038.72;4997706;28;20045;-86
2023/04/02 10:06:19;;;;;;;3.75;1.70;;;;;;;7.57;83.02;102036.03;4981356;28;20030;-86
2023/04/02 10:08:48;;;;;;;4.25;1.98;;;;;;;7.54;82.55;102039.88;4997768;28;20034;-86
2023/04/02 10:11:33;;;;;;;3.90;1.55;;;;;;;7.46;84.21;102048.00;5015601;28;20037;-86
2023/04/02 10:14:15;;;;;;;6.80;1.77;;;;;;;7.47;84.72;102047.81;5014929;28;20103;-86
2023/04/02 10:16:57;;;;;;;3.75;1.27;;;;;;;7.39;84.83;102045.09;4997837;28;20034;-87
2023/04/02 10:19:34;;;;;;;3.42;1.30;;;;;;;7.38;84.56;102060.47;4996935;28;20029;-86
2023/04/02 10:22:05;;;;;;;3.30;1.50;;;;;;;7.34;82.79;102053.69;4998016;28;20080;-90
2023/04/02 10:24:31;;;;;;;4.20;1.48;;;;;;;7.26;83.48;102064.44;4996986;28;20040;-86
2023/04/02 10:27:32;;;;;;;4.60;1.60;;;;;;;7.47;85.46;102066.72;4997070;28;20120;-86
2023/04/02 10:30:18;;;;;;;3.83;1.70;;;;;;;7.68;83.63;102065.41;5014832;28;20048;-86
2023/04/02 10:32:57;;;;;;;3.50;1.20;;;;;;;7.85;82.28;102071.69;4997602;28;20033;-86
2023/04/02 10:35:46;;;;;;;3.17;1.35;;;;;;;7.93;82.52;102077.09;5014713;28;20466;-86
2023/04/02 10:38:18;;;;;;;2.00;1.10;;;;;;;7.84;79.50;102092.47;4997070;28;20129;-86
2023/04/02 10:41:17;;;;;;;3.00;1.42;;;;;;;7.78;82.17;102103.94;4997062;28;20042;-86
2023/04/02 10:43:58;;;;;;;3.72;1.70;;;;;;;7.67;80.66;102102.38;5014263;28;20044;-86
2023/04/02 10:46:36;;;;;;;3.95;1.50;;;;;;;7.61;80.07;102099.50;5014510;28;20053;-85
2023/04/02 10:49:22;;;;;;;8.65;1.35;;;;;;;7.55;81.44;102114.50;5014254;28;20030;-86
2023/04/02 10:52:15;;;;;;;4.68;1.23;;;;;;;7.61;82.61;102103.03;5014447;28;20542;-86
2023/04/02 10:55:00;;;;;;;4.32;1.35;;;;;;;7.59;81.65;102102.38;5013879;28;20068;-86
2023/04/02 10:57:30;;;;;;;5.80;1.85;;;;;;;7.68;79.84;102114.88;4996725;28;20116;-86
2023/04/02 11:00:17;;;;;;;2.90;1.25;;;;;;;7.80;81.59;102114.56;4996258;28;20389;-90
2023/04/02 11:02:54;;;;;;;4.78;1.30;;;;;;;7.92;81.16;102121.34;4996679;28;20026;-86
2023/04/02 11:05:42;;;;;;;5.22;2.15;;;;;;;8.04;80.60;102116.47;4996934;28;20116;-87
2023/04/02 11:11:45;;;;;;;5.65;1.92;;;;;;;8.61;78.57;102126.47;5013874;28;20390;-87
2023/04/02 11:14:25;;;;;;;3.60;1.63;;;;;;;8.90;78.55;102139.44;5014453;28;20060;-86
2023/04/02 11:16:53;;;;;;;2.78;1.30;;;;;;;9.30;75.96;102139.47;4997148;28;20040;-86
2023/04/02 11:19:28;;;;;;;3.28;1.40;;;;;;;9.41;75.26;102139.09;5013836;28;20037;-87
2023/04/02 11:21:55;;;;;;;3.25;1.40;;;;;;;9.44;73.07;102148.72;5014625;28;20038;-86
2023/04/02 11:24:32;;;;;;;3.67;1.30;;;;;;;9.43;73.49;102141.63;4996737;28;20048;-87
2023/04/02 11:27:10;;;;;;;4.70;1.63;;;;;;;9.57;73.32;102151.72;4996830;28;20087;-86
2023/04/02 11:29:55;;;;;;;3.63;1.40;;;;;;;9.54;72.90;102157.50;5013877;28;20065;-87
2023/04/02 11:32:20;;;;;;;4.55;1.50;;;;;;;9.57;71.04;102162.56;4995802;28;20053;-86
2023/04/02 11:34:46;;;;;;;2.43;1.30;;;;;;;9.48;69.52;102164.47;5013782;28;20061;-86
2023/04/02 11:37:30;;;;;;;2.08;1.20;;;;;;;9.48;74.67;102171.75;4995798;28;20030;-86
2023/04/02 11:39:58;;;;;;;3.27;1.50;;;;;;;9.53;72.61;102172.06;5013540;28;20040;-86
2023/04/02 11:42:32;;;;;;;3.50;1.67;;;;;;;9.36;70.25;102167.72;4996102;28;20510;-86
2023/04/02 11:45:25;;;;;;;6.20;1.80;;;;;;;9.17;69.86;102172.53;5013828;28;20034;-87
2023/04/02 11:48:00;;;;;;;3.70;1.23;;;;;;;9.33;71.78;102173.47;4995954;28;20050;-87
2023/04/02 11:50:39;;;;;;;3.58;1.25;;;;;;;9.51;72.37;102184.94;5013626;28;20030;-86
2023/04/02 11:53:11;;;;;;;2.73;1.30;;;;;;;9.62;70.07;102179.13;4996184;28;20038;-86
2023/04/02 11:56:08;;;;;;;3.72;1.60;;;;;;;9.62;69.92;102175.56;4996904;28;20026;-86
2023/04/02 11:58:52;;;;;;;4.32;1.42;;;;;;;9.48;71.39;102191.56;4995970;28;20033;-87
2023/04/02 12:02:09;;;;;;;4.10;1.50;;;;;;;9.34;72.22;102192.28;4997853;28;20470;-86
2023/04/02 12:05:18;;;;;;;3.50;1.30;;;;;;;9.21;72.56;102203.66;4967583;28;20121;-87
2023/04/02 12:07:50;;;;;;;3.37;1.53;;;;;;;9.04;68.90;102212.84;4988231;28;20041;-87
2023/04/02 12:10:31;;;;;;;5.22;1.50;;;;;;;8.95;69.33;102212.84;4999798;28;20091;-87
2023/04/02 12:12:57;;;;;;;8.43;1.85;;;;;;;9.01;71.03;102215.91;4999379;28;20026;-86